createdAt,value
2022-10-22T00:01:56.980Z,20.07
2022-10-22T00:04:31.435Z,19.40
2022-10-22T00:07:03.143Z,21.37
2022-10-22T00:09:31.675Z,21.73
2022-10-22T00:12:00.355Z,22.77
2022-10-22T00:14:28.986Z,23.00
2022-10-22T00:17:00.904Z,20.77
2022-10-22T00:19:31.174Z,23.10
2022-10-22T00:21:59.683Z,22.63
2022-10-22T00:24:28.282Z,23.50
2022-10-22T00:26:56.726Z,21.57
2022-10-22T00:29:25.438Z,21.67
2022-10-22T00:34:27.546Z,23.80
2022-10-22T00:36:57.343Z,21.97
2022-10-22T00:39:29.008Z,21.73
2022-10-22T00:41:59.666Z,23.27
2022-10-22T00:45:04.262Z,21.80
2022-10-22T00:47:37.808Z,21.57
2022-10-22T00:50:12.601Z,21.00
2022-10-22T00:52:43.003Z,20.37
2022-10-22T00:55:13.451Z,21.33
2022-10-22T00:57:42.862Z,23.17
2022-10-22T01:00:13.143Z,21.00
2022-10-22T01:02:42.214Z,21.87
2022-10-22T01:05:11.702Z,23.77
2022-10-22T01:07:48.997Z,22.77
2022-10-22T01:10:43.924Z,24.73
2022-10-22T01:13:30.626Z,21.70
2022-10-22T01:16:09.982Z,22.80
2022-10-22T01:18:50.178Z,22.90
2022-10-22T01:21:32.298Z,23.33
2022-10-22T01:24:36.688Z,22.60
2022-10-22T01:27:45.440Z,21.47
2022-10-22T01:30:18.271Z,24.73
2022-10-22T01:32:51.234Z,23.00
2022-10-22T01:35:26.439Z,22.70
2022-10-22T01:38:00.401Z,22.57
2022-10-22T01:40:31.294Z,22.10
2022-10-22T01:43:02.009Z,22.00
2022-10-22T01:45:37.254Z,25.30
2022-10-22T01:48:27.267Z,20.70
2022-10-22T01:51:30.122Z,22.40
2022-10-22T01:54:07.899Z,24.10
2022-10-22T01:56:54.226Z,23.90
2022-10-22T01:59:40.989Z,22.87
2022-10-22T02:02:25.510Z,24.67
2022-10-22T02:05:02.155Z,24.20
2022-10-22T02:07:38.607Z,23.00
2022-10-22T02:10:11.199Z,23.20
2022-10-22T02:12:42.670Z,24.17
2022-10-22T02:15:14.516Z,24.40
2022-10-22T02:17:47.687Z,25.77
2022-10-22T02:20:23.842Z,24.50
2022-10-22T02:22:52.681Z,25.20
2022-10-22T02:25:25.952Z,25.70
2022-10-22T02:28:06.280Z,24.63
2022-10-22T02:30:37.167Z,25.33
2022-10-22T02:33:15.191Z,24.50
2022-10-22T02:35:45.622Z,23.63
2022-10-22T02:38:15.066Z,25.13
2022-10-22T02:40:43.783Z,25.00
2022-10-22T02:43:12.479Z,26.13
2022-10-22T02:45:41.173Z,26.47
2022-10-22T02:48:11.495Z,25.87
2022-10-22T02:50:39.978Z,25.77
2022-10-22T02:53:08.555Z,27.77
2022-10-22T02:55:37.367Z,26.03
2022-10-22T02:58:06.032Z,25.67
2022-10-22T03:00:34.552Z,27.77
2022-10-22T03:03:03.054Z,24.93
2022-10-22T03:05:33.029Z,25.20
2022-10-22T03:08:01.472Z,28.70
2022-10-22T03:10:29.997Z,27.77
2022-10-22T03:12:58.528Z,26.80
2022-10-22T03:17:56.757Z,29.20
2022-10-22T03:20:25.194Z,27.13
2022-10-22T03:22:56.778Z,31.47
2022-10-22T03:25:31.058Z,31.33
2022-10-22T03:28:05.051Z,30.57
2022-10-22T03:30:33.660Z,28.93
2022-10-22T03:33:02.088Z,29.87
2022-10-22T03:35:32.427Z,30.93
2022-10-22T03:38:03.133Z,30.20
2022-10-22T03:40:31.667Z,30.60
2022-10-22T03:43:00.536Z,29.80
2022-10-22T03:45:29.067Z,30.13
2022-10-22T03:47:57.959Z,31.20
2022-10-22T03:50:26.486Z,32.50
2022-10-22T03:52:55.073Z,30.90
2022-10-22T03:55:25.375Z,31.70
2022-10-22T03:57:54.052Z,31.60
2022-10-22T04:00:22.806Z,29.67
2022-10-22T04:02:51.323Z,30.93
2022-10-22T04:05:19.752Z,28.70
2022-10-22T04:07:48.197Z,29.90
2022-10-22T04:10:16.854Z,29.00
2022-10-22T04:12:48.710Z,28.73
2022-10-22T04:15:17.876Z,29.77
2022-10-22T04:17:46.316Z,29.87
2022-10-22T04:20:14.902Z,28.83
2022-10-22T04:22:43.371Z,29.40
2022-10-22T04:25:11.949Z,29.73
2022-10-22T04:27:40.563Z,29.20
2022-10-22T04:30:12.297Z,30.03
2022-10-22T04:32:40.771Z,30.50
2022-10-22T04:35:09.890Z,28.00
2022-10-22T04:37:39.121Z,29.93
2022-10-22T04:40:09.825Z,28.43
2022-10-22T04:42:38.301Z,28.30
2022-10-22T04:45:07.715Z,28.77
2022-10-22T04:47:37.623Z,28.30
2022-10-22T04:50:07.644Z,27.43
2022-10-22T04:52:36.178Z,27.90
2022-10-22T04:55:05.297Z,30.67
2022-10-22T04:57:34.179Z,28.30
2022-10-22T05:00:02.753Z,30.00
2022-10-22T05:02:31.297Z,28.27
2022-10-22T05:05:01.250Z,27.97
2022-10-22T05:07:29.910Z,29.87
2022-10-22T05:09:58.400Z,28.13
2022-10-22T05:12:26.972Z,26.50
2022-10-22T05:14:56.005Z,29.17
2022-10-22T05:17:24.547Z,27.40
2022-10-22T05:19:53.015Z,27.70
2022-10-22T05:22:22.969Z,29.97
2022-10-22T05:24:51.397Z,28.43
2022-10-22T05:29:53.629Z,30.10
2022-10-22T05:32:23.055Z,29.20
2022-10-22T05:34:51.489Z,28.37
2022-10-22T05:37:19.950Z,29.53
2022-10-22T05:39:57.568Z,30.07
2022-10-22T05:42:37.892Z,29.80
2022-10-22T05:45:08.251Z,27.43
2022-10-22T05:47:36.709Z,26.97
2022-10-22T05:50:05.788Z,26.27
2022-10-22T05:52:35.942Z,27.93
2022-10-22T05:55:06.745Z,28.17
2022-10-22T05:57:35.288Z,28.60
2022-10-22T06:00:04.171Z,25.00
2022-10-22T06:02:33.116Z,26.67
2022-10-22T06:05:01.699Z,29.87
2022-10-22T06:07:30.305Z,28.40
2022-10-22T06:09:58.953Z,31.17
2022-10-22T06:12:28.865Z,27.90
2022-10-22T06:14:57.461Z,30.40
2022-10-22T06:17:25.996Z,26.90
2022-10-22T06:19:54.573Z,27.77
2022-10-22T06:22:23.171Z,27.77
2022-10-22T06:24:52.890Z,27.03
2022-10-22T06:27:21.489Z,28.07
2022-10-22T06:29:51.413Z,28.83
2022-10-22T06:32:19.956Z,28.00
2022-10-22T06:34:50.428Z,26.53
2022-10-22T06:37:19.119Z,28.43
2022-10-22T06:39:47.599Z,28.17
2022-10-22T06:42:16.019Z,30.10
2022-10-22T06:44:45.562Z,28.50
2022-10-22T06:47:15.516Z,28.73
2022-10-22T06:49:44.020Z,26.57
2022-10-22T06:52:13.773Z,27.10
2022-10-22T06:54:42.299Z,29.07
2022-10-22T06:57:10.811Z,27.67
2022-10-22T06:59:39.412Z,27.90
2022-10-22T07:02:08.055Z,28.27
2022-10-22T07:04:38.084Z,29.33
2022-10-22T07:07:06.627Z,27.53
2022-10-22T07:09:35.252Z,28.53
2022-10-22T07:12:04.436Z,27.83
2022-10-22T07:14:33.280Z,28.63
2022-10-22T07:17:02.199Z,27.50
2022-10-22T07:19:31.519Z,27.70
2022-10-22T07:22:01.557Z,26.23
2022-10-22T07:24:31.356Z,26.63
2022-10-22T07:27:00.398Z,29.90
2022-10-22T07:29:29.604Z,27.70
2022-10-22T07:31:59.889Z,27.30
2022-10-22T07:34:31.098Z,27.40
2022-10-22T07:37:05.026Z,27.30
2022-10-22T07:39:33.932Z,23.57
2022-10-22T07:42:03.325Z,28.37
2022-10-22T07:44:32.041Z,26.80
2022-10-22T07:47:00.613Z,30.13
2022-10-22T07:49:29.125Z,24.63
2022-10-22T07:51:58.068Z,20.37
2022-10-22T07:54:28.191Z,25.00
2022-10-22T07:56:56.733Z,32.33
2022-10-22T07:59:25.291Z,26.17
2022-10-22T08:01:53.814Z,21.13
2022-10-22T08:04:22.383Z,17.37
2022-10-22T08:06:50.914Z,16.93
2022-10-22T08:09:19.687Z,17.80
2022-10-22T08:11:49.634Z,16.40
2022-10-22T08:14:18.332Z,16.07
2022-10-22T08:16:47.037Z,17.43
2022-10-22T08:19:18.736Z,17.83
2022-10-22T08:21:47.546Z,14.97
2022-10-22T08:24:16.420Z,15.50
2022-10-22T08:26:45.100Z,18.20
2022-10-22T08:29:15.022Z,15.50
2022-10-22T08:31:43.677Z,14.83
2022-10-22T08:34:13.547Z,16.20
2022-10-22T08:36:42.407Z,14.63
2022-10-22T08:39:11.406Z,12.23
2022-10-22T08:41:50.918Z,15.73
2022-10-22T08:44:56.820Z,15.00
2022-10-22T08:48:01.943Z,11.60
2022-10-22T08:50:39.787Z,10.37
2022-10-22T08:53:15.532Z,9.10
2022-10-22T08:55:44.982Z,10.57
2022-10-22T08:58:25.488Z,8.33
2022-10-22T09:01:01.153Z,8.50
2022-10-22T09:03:46.754Z,6.00
2022-10-22T09:06:20.850Z,5.10
2022-10-22T09:08:49.908Z,6.17
2022-10-22T09:11:29.296Z,6.53
2022-10-22T09:13:59.187Z,5.80
2022-10-22T09:16:44.113Z,5.20
2022-10-22T09:19:26.353Z,5.40
2022-10-22T09:22:09.239Z,4.20
2022-10-22T09:24:43.052Z,4.43
2022-10-22T09:27:16.409Z,4.30
2022-10-22T09:29:46.802Z,4.30
2022-10-22T09:32:19.140Z,4.00
2022-10-22T09:34:50.037Z,3.50
2022-10-22T09:37:25.828Z,3.27
2022-10-22T09:39:56.657Z,4.70
2022-10-22T09:42:25.833Z,4.10
2022-10-22T09:44:57.627Z,3.27
2022-10-22T09:48:00.408Z,3.10
2022-10-22T09:50:38.076Z,3.40
2022-10-22T09:53:16.332Z,3.33
2022-10-22T09:55:45.235Z,3.17
2022-10-22T09:58:15.181Z,3.40
2022-10-22T10:00:48.606Z,3.30
2022-10-22T10:03:23.979Z,3.20
2022-10-22T10:05:58.031Z,3.00
2022-10-22T10:08:28.684Z,3.00
2022-10-22T10:11:04.800Z,2.93
2022-10-22T10:13:50.553Z,2.67
2022-10-22T10:16:39.482Z,2.43
2022-10-22T10:19:31.589Z,2.40
2022-10-22T10:22:15.430Z,2.60
2022-10-22T10:25:05.275Z,2.63
2022-10-22T10:27:41.794Z,2.43
2022-10-22T10:30:16.992Z,2.20
2022-10-22T10:33:07.979Z,2.53
2022-10-22T10:35:50.574Z,2.40
2022-10-22T10:38:36.154Z,2.57
2022-10-22T10:41:19.168Z,2.33
2022-10-22T10:44:11.835Z,2.40
2022-10-22T10:46:56.144Z,2.00
2022-10-22T10:49:28.083Z,2.10
2022-10-22T10:52:12.439Z,1.90
2022-10-22T10:54:52.387Z,1.87
2022-10-22T10:57:38.158Z,1.93
2022-10-22T11:00:15.695Z,2.30
2022-10-22T11:03:47.233Z,1.93
2022-10-22T11:06:23.103Z,1.83
2022-10-22T11:09:03.829Z,1.87
2022-10-22T11:11:40.986Z,2.03
2022-10-22T11:14:18.731Z,2.00
2022-10-22T11:16:55.500Z,1.80
2022-10-22T11:19:50.362Z,2.00
2022-10-22T11:22:27.658Z,1.70
2022-10-22T11:25:06.847Z,1.73
2022-10-22T11:27:44.017Z,1.50
2022-10-22T11:30:17.346Z,1.40
2022-10-22T11:32:55.881Z,1.50
2022-10-22T11:35:29.690Z,1.30
2022-10-22T11:37:59.817Z,1.77
2022-10-22T11:40:38.278Z,1.90
2022-10-22T11:43:10.180Z,1.60
2022-10-22T11:45:41.014Z,1.67
2022-10-22T11:48:34.801Z,1.63
2022-10-22T11:51:05.253Z,1.60
2022-10-22T11:53:37.297Z,1.60
2022-10-22T11:56:26.009Z,1.30
2022-10-22T11:58:56.742Z,1.10
2022-10-22T12:01:30.249Z,1.67
2022-10-22T12:04:22.537Z,1.63
2022-10-22T12:07:33.810Z,1.60
2022-10-22T12:10:07.033Z,1.40
2022-10-22T12:12:41.064Z,2.00
2022-10-22T12:15:27.045Z,1.57
2022-10-22T12:18:03.189Z,1.50
2022-10-22T12:20:32.508Z,1.40
2022-10-22T12:23:02.783Z,1.53
2022-10-22T12:25:35.641Z,1.50
2022-10-22T12:28:11.257Z,1.30
2022-10-22T12:30:41.337Z,1.07
2022-10-22T12:33:22.623Z,1.20
2022-10-22T12:35:57.398Z,1.40
2022-10-22T12:38:26.581Z,1.20
2022-10-22T12:40:57.911Z,1.00
2022-10-22T12:43:30.961Z,0.93
2022-10-22T12:46:01.091Z,1.10
2022-10-22T12:48:34.760Z,1.30
2022-10-22T12:51:08.001Z,1.50
2022-10-22T12:53:40.716Z,1.17
2022-10-22T12:56:16.450Z,1.27
2022-10-22T12:58:52.872Z,1.30
2022-10-22T13:01:21.703Z,1.70
2022-10-22T13:03:52.821Z,2.37
2022-10-22T13:06:27.243Z,1.13
2022-10-22T13:09:15.854Z,1.27
2022-10-22T13:11:54.234Z,1.47
2022-10-22T13:14:30.292Z,1.30
2022-10-22T13:17:08.602Z,1.47
2022-10-22T13:19:51.523Z,1.57
2022-10-22T13:22:37.117Z,4.60
2022-10-22T13:25:25.094Z,17.23
2022-10-22T13:27:57.591Z,1.30
2022-10-22T13:30:31.561Z,2.63
2022-10-22T13:33:03.431Z,1.60
2022-10-22T13:35:35.734Z,1.90
2022-10-22T13:38:04.744Z,5.93
2022-10-22T13:40:33.478Z,2.33
2022-10-22T13:43:01.988Z,2.10
2022-10-22T13:45:31.894Z,1.67
2022-10-22T13:48:00.377Z,1.63
2022-10-22T13:50:28.868Z,2.00
2022-10-22T13:52:59.601Z,2.27
2022-10-22T13:55:31.259Z,1.50
2022-10-22T13:58:07.547Z,1.60
2022-10-22T14:00:43.010Z,2.50
2022-10-22T14:03:14.623Z,1.50
2022-10-22T14:05:43.646Z,1.50
2022-10-22T14:08:15.183Z,1.70
2022-10-22T14:10:44.437Z,1.40
2022-10-22T14:13:14.441Z,1.40
2022-10-22T14:15:47.215Z,1.50
2022-10-22T14:18:26.500Z,1.40
2022-10-22T14:20:59.860Z,1.30
2022-10-22T14:23:31.545Z,1.40
2022-10-22T14:26:01.762Z,2.17
2022-10-22T14:28:34.200Z,1.87
2022-10-22T14:31:12.702Z,1.40
2022-10-22T14:33:42.107Z,1.50
2022-10-22T14:36:14.168Z,1.40
2022-10-22T14:38:43.151Z,1.57
2022-10-22T14:41:22.615Z,1.73
2022-10-22T14:43:55.351Z,1.70
2022-10-22T14:46:25.323Z,1.70
2022-10-22T14:48:53.815Z,1.27
2022-10-22T14:51:23.525Z,1.60
2022-10-22T14:53:51.991Z,1.30
2022-10-22T14:56:22.240Z,1.50
2022-10-22T14:58:51.705Z,1.50
2022-10-22T15:01:20.466Z,1.70
2022-10-22T15:03:50.384Z,1.87
2022-10-22T15:06:18.897Z,1.63
2022-10-22T15:08:47.626Z,2.00
2022-10-22T15:11:16.203Z,1.90
2022-10-22T15:13:44.837Z,1.63
2022-10-22T15:16:16.445Z,1.70
2022-10-22T15:18:44.949Z,2.30
2022-10-22T15:21:19.603Z,1.77
2022-10-22T15:23:49.336Z,2.43
2022-10-22T15:26:18.454Z,1.70
2022-10-22T15:28:46.917Z,2.20
2022-10-22T15:31:16.133Z,1.97
2022-10-22T15:33:45.261Z,1.63
2022-10-22T15:36:17.913Z,2.30
2022-10-22T15:38:46.587Z,2.00
2022-10-22T15:41:15.031Z,2.20
2022-10-22T15:43:43.501Z,2.20
2022-10-22T15:46:15.317Z,2.00
2022-10-22T15:48:44.987Z,2.23
2022-10-22T15:51:17.978Z,2.73
2022-10-22T15:53:53.314Z,2.20
2022-10-22T15:56:22.873Z,2.20
2022-10-22T15:58:55.463Z,2.43
2022-10-22T16:01:24.458Z,2.40
2022-10-22T16:04:00.236Z,2.40
2022-10-22T16:06:33.151Z,2.17
2022-10-22T16:09:04.930Z,2.77
2022-10-22T16:11:55.783Z,2.40
2022-10-22T16:14:25.017Z,2.30
2022-10-22T16:16:56.506Z,3.00
2022-10-22T16:19:25.805Z,2.87
2022-10-22T16:21:57.809Z,2.57
2022-10-22T16:24:26.737Z,2.80
2022-10-22T16:26:55.791Z,2.37
2022-10-22T16:29:24.363Z,3.40
2022-10-22T16:31:52.785Z,2.90
2022-10-22T16:34:21.526Z,3.50
2022-10-22T16:39:22.289Z,3.47
2022-10-22T16:41:51.843Z,4.30
2022-10-22T16:44:20.383Z,4.70
2022-10-22T16:46:48.996Z,3.90
2022-10-22T16:49:17.523Z,4.50
2022-10-22T16:51:45.997Z,4.63
2022-10-22T16:54:15.664Z,4.77
2022-10-22T16:56:45.760Z,4.00
2022-10-22T16:59:14.365Z,3.80
2022-10-22T17:01:42.993Z,4.20
2022-10-22T17:04:11.790Z,4.70
2022-10-22T17:06:40.643Z,4.87
2022-10-22T17:09:09.302Z,5.20
2022-10-22T17:11:40.152Z,4.57
2022-10-22T17:14:12.877Z,4.47
2022-10-22T17:16:41.508Z,4.63
2022-10-22T17:19:14.087Z,5.27
2022-10-22T17:21:43.150Z,5.13
2022-10-22T17:24:12.134Z,6.00
2022-10-22T17:26:42.066Z,6.43
2022-10-22T17:29:13.624Z,6.83
2022-10-22T17:31:42.438Z,7.93
2022-10-22T17:34:18.361Z,6.20
2022-10-22T17:36:46.864Z,6.17
2022-10-22T17:39:19.486Z,6.60
2022-10-22T17:41:48.082Z,7.97
2022-10-22T17:44:18.556Z,6.40
2022-10-22T17:46:49.758Z,6.60
2022-10-22T17:49:21.320Z,7.20
2022-10-22T17:51:50.510Z,7.40
2022-10-22T17:54:19.186Z,7.50
2022-10-22T17:56:47.873Z,7.50
2022-10-22T17:59:19.171Z,7.27
2022-10-22T18:01:48.818Z,7.57
2022-10-22T18:04:43.762Z,7.70
2022-10-22T18:07:13.434Z,7.93
2022-10-22T18:09:43.977Z,8.17
2022-10-22T18:12:14.841Z,7.70
2022-10-22T18:14:45.460Z,8.30
2022-10-22T18:19:43.061Z,9.20
2022-10-22T18:22:11.670Z,9.50
2022-10-22T18:24:40.561Z,9.30
2022-10-22T18:27:09.122Z,9.10
2022-10-22T18:29:38.706Z,11.17
2022-10-22T18:32:12.961Z,9.70
2022-10-22T18:34:42.633Z,11.67
2022-10-22T18:37:11.312Z,10.60
2022-10-22T18:39:40.261Z,11.10
2022-10-22T18:42:09.079Z,11.37
2022-10-22T18:44:37.875Z,12.17
2022-10-22T18:47:08.665Z,13.17
2022-10-22T18:49:37.161Z,11.80
2022-10-22T18:52:05.974Z,10.90
2022-10-22T18:54:35.891Z,12.07
2022-10-22T18:57:04.963Z,11.03
2022-10-22T18:59:33.558Z,13.30
2022-10-22T19:02:02.151Z,12.27
2022-10-22T19:04:36.903Z,11.63
2022-10-22T19:07:06.394Z,12.47
2022-10-22T19:09:35.386Z,12.17
2022-10-22T19:12:04.592Z,13.87
2022-10-22T19:14:33.795Z,17.60
2022-10-22T19:17:02.722Z,18.53
2022-10-22T19:19:32.704Z,17.87
2022-10-22T19:22:01.470Z,16.03
2022-10-22T19:24:30.259Z,18.00
2022-10-22T19:26:58.944Z,15.87
2022-10-22T19:29:27.656Z,16.77
2022-10-22T19:31:56.376Z,16.50
2022-10-22T19:34:25.091Z,15.37
2022-10-22T19:36:55.204Z,15.90
2022-10-22T19:39:23.909Z,15.47
2022-10-22T19:41:52.661Z,18.20
2022-10-22T19:44:21.525Z,14.97
2022-10-22T19:46:52.739Z,18.20
2022-10-22T19:49:22.961Z,18.20
2022-10-22T19:51:52.471Z,20.10
2022-10-22T19:54:22.506Z,19.90
2022-10-22T19:56:51.794Z,17.43
2022-10-22T19:59:22.705Z,17.90
2022-10-22T20:01:51.789Z,20.43
2022-10-22T20:04:24.987Z,25.10
2022-10-22T20:06:53.616Z,26.47
2022-10-22T20:09:23.791Z,28.93
2022-10-22T20:11:52.785Z,31.80
2022-10-22T20:14:21.405Z,33.00
2022-10-22T20:16:52.414Z,32.77
2022-10-22T20:19:21.456Z,26.30
2022-10-22T20:21:50.596Z,28.90
2022-10-22T20:24:19.850Z,32.13
2022-10-22T20:26:50.087Z,33.10
2022-10-22T20:29:19.520Z,37.40
2022-10-22T20:31:48.599Z,44.20
2022-10-22T20:34:17.812Z,45.90
2022-10-22T20:36:46.953Z,44.90
2022-10-22T20:39:17.535Z,46.20
2022-10-22T20:41:46.361Z,45.00
2022-10-22T20:44:19.056Z,34.57
2022-10-22T20:46:47.863Z,31.47
2022-10-22T20:49:18.959Z,35.00
2022-10-22T20:51:48.562Z,40.07
2022-10-22T20:54:19.156Z,35.73
2022-10-22T20:56:48.991Z,33.00
2022-10-22T20:59:19.804Z,29.37
2022-10-22T21:01:52.426Z,26.73
2022-10-22T21:04:23.214Z,29.40
2022-10-22T21:06:53.150Z,33.40
2022-10-22T21:09:22.893Z,34.67
2022-10-22T21:14:24.544Z,32.80
2022-10-22T21:16:53.297Z,30.43
2022-10-22T21:19:24.632Z,29.33
2022-10-22T21:21:53.511Z,30.57
2022-10-22T21:24:24.699Z,28.70
2022-10-22T21:26:54.516Z,26.40
2022-10-22T21:29:25.147Z,26.73
2022-10-22T21:31:54.667Z,26.80
2022-10-22T21:34:23.609Z,22.00
2022-10-22T21:36:52.837Z,23.20
2022-10-22T21:39:21.852Z,18.70
2022-10-22T21:41:50.815Z,18.10
2022-10-22T21:44:19.579Z,19.83
2022-10-22T21:46:49.770Z,21.87
2022-10-22T21:49:18.860Z,19.97
2022-10-22T21:51:47.902Z,19.27
2022-10-22T21:54:16.806Z,20.83
2022-10-22T21:56:45.414Z,22.20
2022-10-22T21:59:14.139Z,19.93
2022-10-22T22:01:43.072Z,21.03
2022-10-22T22:04:13.576Z,22.17
2022-10-22T22:06:42.182Z,19.83
2022-10-22T22:09:11.032Z,19.87
2022-10-22T22:11:39.944Z,19.67
2022-10-22T22:14:08.826Z,19.63
2022-10-22T22:16:37.771Z,21.40
2022-10-22T22:19:09.799Z,18.40
2022-10-22T22:21:42.343Z,18.47
2022-10-22T22:24:14.397Z,18.70
2022-10-22T22:26:43.001Z,20.67
2022-10-22T22:29:12.409Z,20.07
2022-10-22T22:31:41.025Z,19.67
2022-10-22T22:34:14.512Z,19.90
2022-10-22T22:36:48.019Z,18.40
2022-10-22T22:39:19.132Z,19.83
2022-10-22T22:41:48.157Z,18.77
2022-10-22T22:44:16.884Z,17.57
2022-10-22T22:46:45.708Z,20.27
2022-10-22T22:49:14.956Z,17.47
2022-10-22T22:51:45.358Z,18.97
2022-10-22T22:54:14.099Z,19.00
2022-10-22T22:56:42.605Z,19.80
2022-10-22T22:59:12.490Z,20.63
2022-10-22T23:01:41.354Z,19.70
2022-10-22T23:04:19.307Z,19.10
2022-10-22T23:06:49.261Z,20.50
2022-10-22T23:11:54.125Z,20.00
2022-10-22T23:14:22.705Z,19.57
2022-10-22T23:16:53.869Z,18.57
2022-10-22T23:19:24.479Z,19.70
2022-10-22T23:21:57.181Z,19.63
2022-10-22T23:24:29.415Z,19.40
2022-10-22T23:27:01.888Z,19.03
2022-10-22T23:29:32.870Z,19.03
2022-10-22T23:32:03.256Z,19.90
2022-10-22T23:34:32.511Z,20.20
2022-10-22T23:37:02.452Z,18.80
2022-10-22T23:39:31.378Z,19.67
2022-10-22T23:42:00.298Z,18.60
2022-10-22T23:44:28.951Z,19.90
2022-10-22T23:46:57.525Z,20.87
2022-10-22T23:49:26.175Z,23.10
2022-10-22T23:51:54.718Z,18.43
2022-10-22T23:54:24.703Z,17.73
2022-10-22T23:56:53.257Z,19.03
2022-10-22T23:59:21.882Z,20.60
